createdAt,value
2022-08-26T00:00:34.348Z,9.20
2022-08-26T00:03:08.679Z,9.30
2022-08-26T00:05:42.305Z,9.57
2022-08-26T00:08:15.198Z,8.90
2022-08-26T00:10:47.086Z,9.73
2022-08-26T00:13:19.629Z,9.53
2022-08-26T00:15:51.639Z,8.83
2022-08-26T00:18:23.489Z,10.60
2022-08-26T00:20:57.788Z,10.83
2022-08-26T00:23:29.591Z,10.40
2022-08-26T00:26:03.150Z,9.83
2022-08-26T00:28:36.024Z,10.87
2022-08-26T00:31:10.879Z,10.37
2022-08-26T00:33:43.114Z,11.47
2022-08-26T00:36:19.968Z,11.00
2022-08-26T00:38:52.238Z,9.50
2022-08-26T00:41:23.981Z,10.10
2022-08-26T00:43:56.263Z,10.93
2022-08-26T00:46:35.130Z,8.80
2022-08-26T00:49:13.517Z,10.93
2022-08-26T00:51:53.044Z,10.27
2022-08-26T00:54:27.741Z,10.10
2022-08-26T00:57:16.205Z,11.00
2022-08-26T00:59:53.287Z,9.03
2022-08-26T01:02:25.222Z,9.85
2022-08-26T01:05:00.623Z,12.17
2022-08-26T01:07:34.894Z,8.77
2022-08-26T01:10:12.246Z,9.60
2022-08-26T01:12:50.374Z,9.17
2022-08-26T01:15:26.526Z,9.50
2022-08-26T01:18:00.378Z,8.27
2022-08-26T01:21:07.839Z,9.40
2022-08-26T01:23:45.053Z,8.83
2022-08-26T01:26:22.667Z,10.03
2022-08-26T01:28:58.694Z,9.30
2022-08-26T01:31:39.194Z,9.47
2022-08-26T01:34:18.137Z,12.47
2022-08-26T01:36:57.056Z,9.30
2022-08-26T01:39:30.837Z,9.27
2022-08-26T01:42:05.267Z,8.50
2022-08-26T01:45:00.754Z,8.93
2022-08-26T01:47:35.531Z,9.30
2022-08-26T01:50:12.864Z,9.40
2022-08-26T01:52:50.031Z,8.00
2022-08-26T01:55:32.598Z,9.63
2022-08-26T01:58:13.808Z,9.53
2022-08-26T02:00:45.874Z,9.37
2022-08-26T02:03:21.604Z,9.30
2022-08-26T02:06:05.976Z,9.10
2022-08-26T02:08:47.059Z,8.57
2022-08-26T02:11:19.071Z,9.27
2022-08-26T02:13:58.117Z,9.40
2022-08-26T02:16:34.277Z,8.40
2022-08-26T02:19:18.348Z,9.37
2022-08-26T02:21:52.055Z,10.00
2022-08-26T02:24:27.792Z,10.30
2022-08-26T02:26:59.799Z,10.00
2022-08-26T02:29:35.424Z,10.07
2022-08-26T02:32:08.627Z,9.90
2022-08-26T02:34:41.102Z,10.57
2022-08-26T02:37:14.514Z,10.43
2022-08-26T02:39:49.487Z,10.90
2022-08-26T02:42:21.894Z,11.27
2022-08-26T02:44:54.571Z,11.20
2022-08-26T02:47:26.366Z,11.33
2022-08-26T02:50:00.986Z,10.30
2022-08-26T02:52:32.824Z,11.60
2022-08-26T02:55:07.116Z,11.68
2022-08-26T02:57:38.943Z,11.37
2022-08-26T03:00:14.803Z,13.37
2022-08-26T03:02:46.687Z,11.83
2022-08-26T03:05:20.080Z,11.40
2022-08-26T03:07:52.695Z,11.53
2022-08-26T03:10:26.071Z,11.73
2022-08-26T03:12:59.919Z,11.70
2022-08-26T03:15:37.067Z,12.70
2022-08-26T03:18:09.063Z,12.40
2022-08-26T03:20:42.106Z,12.02
2022-08-26T03:23:15.811Z,15.00
2022-08-26T03:25:52.022Z,12.60
2022-08-26T03:28:23.895Z,11.63
2022-08-26T03:30:59.200Z,11.67
2022-08-26T03:33:30.950Z,13.13
2022-08-26T03:36:04.004Z,12.00
2022-08-26T03:38:36.058Z,11.80
2022-08-26T03:41:11.005Z,11.00
2022-08-26T03:43:44.123Z,12.47
2022-08-26T03:46:17.767Z,11.80
2022-08-26T03:48:49.587Z,12.37
2022-08-26T03:51:21.303Z,12.60
2022-08-26T03:53:53.080Z,12.43
2022-08-26T03:56:25.102Z,15.77
2022-08-26T03:58:57.814Z,12.00
2022-08-26T04:01:30.873Z,15.40
2022-08-26T04:04:03.824Z,12.00
2022-08-26T04:06:38.986Z,12.13
2022-08-26T04:09:14.761Z,11.30
2022-08-26T04:11:50.648Z,10.60
2022-08-26T04:14:24.296Z,11.93
2022-08-26T04:16:56.614Z,11.00
2022-08-26T04:19:29.046Z,11.83
2022-08-26T04:22:00.810Z,13.03
2022-08-26T04:24:34.685Z,12.90
2022-08-26T04:27:08.143Z,10.50
2022-08-26T04:29:41.467Z,11.97
2022-08-26T04:32:13.543Z,11.60
2022-08-26T04:34:45.370Z,11.00
2022-08-26T04:37:17.606Z,11.27
2022-08-26T04:39:53.699Z,11.97
2022-08-26T04:42:26.090Z,9.93
2022-08-26T04:44:58.854Z,11.87
2022-08-26T04:47:32.489Z,11.00
2022-08-26T04:50:06.041Z,11.03
2022-08-26T04:52:39.166Z,13.60
2022-08-26T04:55:11.335Z,11.70
2022-08-26T04:57:43.135Z,10.50
2022-08-26T05:00:15.497Z,10.67
2022-08-26T05:02:47.595Z,11.20
2022-08-26T05:05:23.239Z,11.30
2022-08-26T05:07:54.964Z,10.57
2022-08-26T05:10:27.183Z,11.13
2022-08-26T05:13:00.234Z,11.83
2022-08-26T05:15:32.278Z,10.80
2022-08-26T05:18:05.546Z,12.60
2022-08-26T05:20:42.667Z,12.83
2022-08-26T05:23:14.971Z,12.43
2022-08-26T05:25:49.172Z,13.83
2022-08-26T05:28:21.948Z,11.23
2022-08-26T05:30:55.586Z,11.30
2022-08-26T05:33:27.526Z,11.80
2022-08-26T05:36:10.266Z,12.97
2022-08-26T05:38:43.993Z,11.37
2022-08-26T05:41:20.554Z,11.90
2022-08-26T05:43:52.948Z,11.10
2022-08-26T05:46:26.911Z,12.83
2022-08-26T05:48:59.549Z,13.73
2022-08-26T05:51:31.911Z,13.30
2022-08-26T05:54:06.055Z,12.47
2022-08-26T05:56:39.221Z,12.80
2022-08-26T05:59:14.700Z,13.13
2022-08-26T06:01:46.494Z,12.00
2022-08-26T06:04:18.474Z,13.37
2022-08-26T06:06:51.866Z,14.60
2022-08-26T06:09:23.865Z,11.33
2022-08-26T06:11:58.659Z,11.30
2022-08-26T06:14:30.617Z,12.30
2022-08-26T06:17:02.481Z,10.60
2022-08-26T06:19:34.975Z,12.30
2022-08-26T06:22:26.658Z,12.17
2022-08-26T06:25:16.815Z,12.50
2022-08-26T06:27:48.910Z,11.87
2022-08-26T06:30:20.909Z,12.37
2022-08-26T06:32:54.446Z,11.40
2022-08-26T06:35:26.957Z,12.50
2022-08-26T06:37:58.669Z,11.43
2022-08-26T06:40:31.139Z,12.27
2022-08-26T06:43:03.107Z,13.40
2022-08-26T06:45:35.158Z,14.60
2022-08-26T06:48:07.956Z,12.50
2022-08-26T06:50:42.427Z,11.50
2022-08-26T06:53:15.359Z,11.33
2022-08-26T06:55:47.554Z,10.90
2022-08-26T06:58:23.804Z,11.00
2022-08-26T07:01:00.672Z,11.77
2022-08-26T07:03:39.576Z,11.47
2022-08-26T07:06:12.534Z,11.43
2022-08-26T07:08:44.522Z,10.57
2022-08-26T07:11:17.154Z,11.00
2022-08-26T07:13:50.683Z,10.27
2022-08-26T07:16:23.744Z,11.43
2022-08-26T07:18:56.074Z,15.07
2022-08-26T07:21:28.900Z,12.90
2022-08-26T07:24:01.770Z,12.03
2022-08-26T07:26:33.600Z,12.40
2022-08-26T07:29:06.894Z,12.13
2022-08-26T07:31:39.613Z,11.83
2022-08-26T07:34:14.347Z,10.10
2022-08-26T07:36:46.107Z,9.67
2022-08-26T07:39:18.677Z,10.53
2022-08-26T07:41:51.618Z,9.00
2022-08-26T07:44:24.375Z,10.80
2022-08-26T07:46:56.558Z,11.20
2022-08-26T07:49:29.680Z,11.03
2022-08-26T07:52:01.950Z,8.50
2022-08-26T07:54:33.760Z,9.17
2022-08-26T07:57:08.366Z,9.87
2022-08-26T07:59:41.362Z,10.07
2022-08-26T08:02:13.110Z,9.73
2022-08-26T08:04:44.993Z,9.33
2022-08-26T08:07:17.896Z,9.63
2022-08-26T08:09:51.219Z,14.43
2022-08-26T08:12:23.267Z,9.43
2022-08-26T08:14:55.521Z,10.03
2022-08-26T08:17:27.295Z,14.13
2022-08-26T08:19:58.994Z,9.27
2022-08-26T08:22:32.449Z,11.63
2022-08-26T08:25:06.346Z,9.37
2022-08-26T08:27:41.315Z,9.87
2022-08-26T08:30:14.033Z,9.40
2022-08-26T08:32:46.015Z,9.90
2022-08-26T08:35:21.498Z,9.90
2022-08-26T08:37:55.410Z,10.00
2022-08-26T08:40:27.810Z,9.77
2022-08-26T08:43:07.709Z,10.47
2022-08-26T08:45:49.583Z,9.47
2022-08-26T08:48:33.754Z,9.73
2022-08-26T08:51:39.781Z,9.07
2022-08-26T08:54:11.949Z,9.20
2022-08-26T08:56:59.742Z,8.90
2022-08-26T08:59:41.034Z,12.00
2022-08-26T09:02:59.771Z,10.30
2022-08-26T09:05:40.074Z,11.50
2022-08-26T09:08:19.885Z,9.83
2022-08-26T09:10:57.342Z,9.80
2022-08-26T09:13:31.709Z,10.33
2022-08-26T09:16:11.305Z,11.13
2022-08-26T09:19:19.177Z,10.70
2022-08-26T09:21:58.775Z,11.40
2022-08-26T09:24:32.506Z,9.70
2022-08-26T09:27:04.351Z,12.80
2022-08-26T09:29:44.534Z,12.23
2022-08-26T09:32:24.890Z,11.30
2022-08-26T09:35:02.355Z,13.52
2022-08-26T09:40:35.374Z,9.98
2022-08-26T09:43:10.290Z,12.23
2022-08-26T09:45:50.482Z,10.05
2022-08-26T09:48:26.434Z,9.35
2022-08-26T09:51:01.417Z,8.98
2022-08-26T09:53:37.519Z,8.85
2022-08-26T09:56:34.986Z,10.20
2022-08-26T09:59:12.019Z,10.48
2022-08-26T10:01:44.958Z,9.88
2022-08-26T10:04:30.748Z,8.48
2022-08-26T10:07:05.862Z,8.50
2022-08-26T10:09:43.078Z,13.23
2022-08-26T10:12:21.711Z,13.75
2022-08-26T10:15:00.059Z,12.70
2022-08-26T10:17:44.483Z,11.52
2022-08-26T10:21:12.240Z,9.73
2022-08-26T10:23:49.489Z,10.60
2022-08-26T10:26:41.247Z,12.75
2022-08-26T10:29:19.796Z,8.98
2022-08-26T10:32:05.860Z,8.70
2022-08-26T10:34:38.091Z,8.93
2022-08-26T10:37:21.469Z,15.68
2022-08-26T10:39:59.349Z,10.35
2022-08-26T10:42:56.950Z,13.73
2022-08-26T10:45:32.329Z,14.57
2022-08-26T10:48:12.519Z,8.40
2022-08-26T10:50:47.395Z,10.07
2022-08-26T10:53:28.322Z,8.40
2022-08-26T10:56:19.073Z,7.70
2022-08-26T10:58:51.106Z,11.38
2022-08-26T11:01:44.113Z,8.00
2022-08-26T11:04:48.524Z,8.18
2022-08-26T11:07:37.490Z,8.18
2022-08-26T11:10:12.271Z,7.93
2022-08-26T11:12:45.363Z,9.23
2022-08-26T11:15:24.350Z,8.80
2022-08-26T11:18:02.231Z,11.02
2022-08-26T11:20:47.226Z,8.40
2022-08-26T11:23:27.791Z,9.18
2022-08-26T11:26:08.689Z,7.82
2022-08-26T11:28:48.908Z,9.13
2022-08-26T11:31:26.885Z,12.07
2022-08-26T11:34:08.768Z,18.63
2022-08-26T11:36:55.102Z,8.32
2022-08-26T11:39:36.793Z,20.42
2022-08-26T11:42:28.512Z,13.10
2022-08-26T11:45:05.481Z,9.02
2022-08-26T11:47:37.743Z,13.82
2022-08-26T11:50:11.075Z,8.18
2022-08-26T11:52:51.741Z,8.55
2022-08-26T11:55:24.153Z,10.00
2022-08-26T11:58:00.925Z,11.80
2022-08-26T12:00:38.807Z,10.95
2022-08-26T12:03:21.136Z,13.93
2022-08-26T12:05:55.450Z,15.55
2022-08-26T12:08:31.631Z,12.68
2022-08-26T12:11:06.896Z,9.13
2022-08-26T12:13:39.184Z,10.68
2022-08-26T12:16:11.021Z,10.80
2022-08-26T12:18:44.912Z,9.43
2022-08-26T12:21:34.577Z,9.63
2022-08-26T12:24:06.835Z,8.18
2022-08-26T12:26:39.376Z,8.20
2022-08-26T12:29:28.022Z,8.55
2022-08-26T12:32:09.143Z,9.00
2022-08-26T12:34:43.303Z,8.05
2022-08-26T12:37:15.612Z,16.52
2022-08-26T12:39:49.000Z,9.68
2022-08-26T12:42:23.432Z,8.40
2022-08-26T12:45:06.403Z,9.35
2022-08-26T12:47:44.225Z,8.77
2022-08-26T12:50:23.459Z,10.80
2022-08-26T12:53:10.533Z,9.63
2022-08-26T12:55:46.083Z,9.65
2022-08-26T12:58:23.983Z,9.05
2022-08-26T13:01:22.225Z,8.80
2022-08-26T13:03:54.167Z,8.38
2022-08-26T13:06:31.704Z,8.90
2022-08-26T13:09:25.339Z,9.25
2022-08-26T13:11:58.204Z,8.80
2022-08-26T13:14:30.401Z,10.15
2022-08-26T13:17:02.399Z,8.30
2022-08-26T13:19:34.139Z,14.25
2022-08-26T13:22:07.536Z,9.77
2022-08-26T13:24:44.215Z,15.77
2022-08-26T13:27:17.828Z,8.07
2022-08-26T13:29:53.562Z,9.25
2022-08-26T13:32:27.765Z,8.98
2022-08-26T13:34:59.794Z,9.35
2022-08-26T13:37:37.455Z,9.30
2022-08-26T13:40:09.995Z,9.95
2022-08-26T13:42:49.579Z,9.18
2022-08-26T13:45:21.882Z,8.90
2022-08-26T13:47:53.620Z,9.10
2022-08-26T13:50:25.384Z,9.05
2022-08-26T13:52:57.160Z,9.27
2022-08-26T13:55:29.140Z,13.68
2022-08-26T13:58:00.942Z,9.77
2022-08-26T14:00:33.752Z,12.85
2022-08-26T14:03:10.176Z,15.05
2022-08-26T14:05:44.471Z,16.38
2022-08-26T14:08:16.419Z,13.93
2022-08-26T14:13:25.496Z,15.77
2022-08-26T14:16:01.556Z,14.03
2022-08-26T14:18:41.091Z,18.77
2022-08-26T14:21:13.772Z,14.83
2022-08-26T14:23:45.554Z,15.10
2022-08-26T14:26:28.573Z,12.70
2022-08-26T14:29:03.884Z,17.80
2022-08-26T14:31:36.306Z,13.13
2022-08-26T14:34:08.347Z,14.23
2022-08-26T14:36:40.092Z,12.63
2022-08-26T14:39:13.376Z,15.03
2022-08-26T14:41:54.410Z,19.93
2022-08-26T14:44:31.858Z,42.87
2022-08-26T14:47:06.479Z,15.73
2022-08-26T14:49:38.226Z,26.17
2022-08-26T14:52:10.201Z,20.97
2022-08-26T14:54:42.161Z,26.77
2022-08-26T14:57:14.775Z,23.47
2022-08-26T14:59:50.167Z,31.93
2022-08-26T15:02:32.838Z,29.50
2022-08-26T15:05:06.478Z,26.58
2022-08-26T15:07:39.259Z,23.83
2022-08-26T15:10:13.895Z,23.73
2022-08-26T15:12:46.561Z,17.10
2022-08-26T15:15:18.975Z,19.43
2022-08-26T15:17:51.342Z,21.27
2022-08-26T15:20:23.171Z,18.87
2022-08-26T15:22:55.151Z,18.03
2022-08-26T15:25:27.583Z,15.50
2022-08-26T15:27:59.998Z,16.03
2022-08-26T15:30:31.970Z,13.93
2022-08-26T15:33:04.023Z,19.02
2022-08-26T15:35:36.028Z,20.50
2022-08-26T15:38:12.544Z,18.83
2022-08-26T15:40:44.830Z,17.30
2022-08-26T15:43:28.686Z,17.73
2022-08-26T15:46:01.077Z,14.10
2022-08-26T15:48:32.864Z,12.27
2022-08-26T15:51:05.463Z,12.93
2022-08-26T15:53:37.171Z,13.43
2022-08-26T15:56:08.913Z,13.13
2022-08-26T15:58:40.774Z,9.10
2022-08-26T16:01:12.785Z,8.73
2022-08-26T16:03:51.623Z,9.50
2022-08-26T16:06:27.502Z,7.53
2022-08-26T16:08:59.959Z,9.10
2022-08-26T16:11:31.811Z,9.50
2022-08-26T16:14:04.698Z,9.17
2022-08-26T16:16:40.046Z,13.73
2022-08-26T16:19:11.839Z,13.70
2022-08-26T16:21:44.712Z,11.70
2022-08-26T16:24:16.848Z,14.90
2022-08-26T16:26:49.042Z,11.60
2022-08-26T16:29:20.834Z,12.03
2022-08-26T16:31:54.643Z,11.20
2022-08-26T16:34:26.393Z,12.30
2022-08-26T16:36:58.369Z,17.40
2022-08-26T16:39:30.258Z,16.50
2022-08-26T16:42:01.964Z,16.93
2022-08-26T16:44:44.244Z,14.60
2022-08-26T16:47:17.903Z,12.70
2022-08-26T16:49:49.822Z,15.60
2022-08-26T16:52:21.562Z,19.70
2022-08-26T16:54:56.690Z,16.17
2022-08-26T16:57:28.435Z,12.70
2022-08-26T17:00:04.588Z,15.43
2022-08-26T17:02:38.219Z,15.47
2022-08-26T17:05:10.855Z,16.03
2022-08-26T17:07:42.578Z,14.13
2022-08-26T17:10:14.314Z,16.17
2022-08-26T17:12:46.223Z,14.27
2022-08-26T17:15:18.707Z,13.90
2022-08-26T17:17:52.578Z,16.13
2022-08-26T17:20:25.299Z,11.57
2022-08-26T17:22:57.133Z,14.40
2022-08-26T17:25:31.685Z,8.80
2022-08-26T17:28:03.771Z,10.20
2022-08-26T17:30:37.823Z,8.20
2022-08-26T17:33:10.939Z,8.57
2022-08-26T17:35:42.972Z,7.57
2022-08-26T17:38:14.722Z,7.57
2022-08-26T17:40:46.503Z,8.23
2022-08-26T17:43:18.994Z,5.80
2022-08-26T17:45:50.891Z,6.37
2022-08-26T17:48:22.656Z,6.53
2022-08-26T17:50:54.841Z,6.57
2022-08-26T17:53:27.190Z,7.30
2022-08-26T17:55:58.923Z,6.05
2022-08-26T17:58:30.624Z,6.50
2022-08-26T18:01:06.691Z,8.97
2022-08-26T18:03:39.714Z,8.63
2022-08-26T18:06:12.958Z,5.97
2022-08-26T18:08:45.003Z,5.37
2022-08-26T18:11:19.397Z,5.57
2022-08-26T18:13:51.516Z,6.57
2022-08-26T18:16:23.339Z,6.40
2022-08-26T18:18:55.044Z,6.93
2022-08-26T18:21:27.795Z,8.40
2022-08-26T18:23:59.759Z,8.23
2022-08-26T18:26:34.658Z,7.97
2022-08-26T18:29:07.574Z,9.17
2022-08-26T18:31:39.295Z,12.17
2022-08-26T18:34:12.975Z,12.10
2022-08-26T18:36:44.911Z,10.50
2022-08-26T18:39:19.162Z,10.67
2022-08-26T18:41:54.038Z,11.60
2022-08-26T18:44:25.843Z,11.77
2022-08-26T18:46:57.626Z,9.60
2022-08-26T18:49:29.459Z,10.10
2022-08-26T18:52:01.219Z,9.77
2022-08-26T18:54:33.183Z,11.10
2022-08-26T18:57:05.065Z,11.03
2022-08-26T18:59:39.010Z,9.97
2022-08-26T19:02:11.024Z,11.80
2022-08-26T19:04:42.988Z,11.90
2022-08-26T19:07:14.809Z,11.13
2022-08-26T19:09:46.638Z,9.37
2022-08-26T19:12:18.531Z,10.77
2022-08-26T19:14:50.274Z,9.27
2022-08-26T19:17:22.642Z,7.83
2022-08-26T19:19:54.646Z,9.03
2022-08-26T19:22:26.374Z,9.73
2022-08-26T19:24:58.597Z,9.37
2022-08-26T19:27:30.974Z,9.67
2022-08-26T19:30:02.854Z,9.40
2022-08-26T19:32:34.718Z,9.50
2022-08-26T19:35:08.306Z,9.10
2022-08-26T19:37:40.218Z,11.23
2022-08-26T19:40:12.124Z,8.57
2022-08-26T19:42:43.913Z,8.57
2022-08-26T19:45:25.354Z,9.40
2022-08-26T19:47:57.398Z,8.60
2022-08-26T19:50:32.157Z,9.07
2022-08-26T19:53:06.998Z,8.77
2022-08-26T19:55:39.250Z,10.13
2022-08-26T19:58:12.143Z,10.30
2022-08-26T20:00:44.045Z,10.43
2022-08-26T20:03:16.410Z,9.73
2022-08-26T20:05:48.823Z,9.57
2022-08-26T20:08:22.697Z,8.43
2022-08-26T20:10:55.645Z,10.33
2022-08-26T20:13:28.243Z,9.40
2022-08-26T20:16:00.040Z,10.33
2022-08-26T20:18:50.294Z,9.77
2022-08-26T20:21:28.051Z,9.40
2022-08-26T20:24:05.124Z,8.97
2022-08-26T20:26:38.970Z,9.40
2022-08-26T20:29:13.340Z,11.13
2022-08-26T20:31:45.982Z,9.93
2022-08-26T20:34:19.395Z,7.97
2022-08-26T20:36:51.269Z,9.17
2022-08-26T20:39:23.194Z,8.43
2022-08-26T20:41:55.746Z,10.23
2022-08-26T20:44:27.551Z,9.73
2022-08-26T20:46:59.957Z,9.60
2022-08-26T20:49:32.414Z,9.67
2022-08-26T20:52:06.696Z,10.80
2022-08-26T20:54:38.789Z,9.33
2022-08-26T20:57:10.649Z,9.33
2022-08-26T20:59:43.516Z,9.80
2022-08-26T21:02:15.931Z,9.87
2022-08-26T21:04:47.840Z,12.43
2022-08-26T21:07:20.729Z,10.10
2022-08-26T21:09:53.989Z,10.00
2022-08-26T21:12:25.689Z,10.20
2022-08-26T21:14:57.489Z,9.37
2022-08-26T21:17:29.733Z,8.67
2022-08-26T21:20:01.610Z,9.53
2022-08-26T21:22:33.827Z,11.30
2022-08-26T21:25:07.497Z,10.13
2022-08-26T21:27:39.301Z,11.60
2022-08-26T21:30:13.253Z,10.30
2022-08-26T21:32:45.053Z,10.93
2022-08-26T21:35:16.807Z,10.90
2022-08-26T21:37:48.735Z,9.77
2022-08-26T21:40:20.494Z,10.93
2022-08-26T21:42:52.267Z,10.83
2022-08-26T21:45:24.106Z,11.20
2022-08-26T21:47:55.933Z,11.80
2022-08-26T21:50:29.471Z,12.20
2022-08-26T21:53:01.224Z,11.33
2022-08-26T21:55:36.420Z,11.97
2022-08-26T21:58:09.425Z,11.23
2022-08-26T22:00:51.999Z,11.43
2022-08-26T22:03:23.906Z,18.77
2022-08-26T22:05:56.607Z,13.03
2022-08-26T22:08:30.203Z,10.33
2022-08-26T22:11:02.991Z,11.53
2022-08-26T22:13:37.610Z,16.50
2022-08-26T22:16:10.295Z,17.07
2022-08-26T22:18:43.780Z,11.80
2022-08-26T22:21:18.998Z,10.90
2022-08-26T22:23:51.442Z,11.00
2022-08-26T22:26:30.905Z,12.53
2022-08-26T22:29:03.689Z,17.63
2022-08-26T22:31:37.653Z,11.47
2022-08-26T22:34:13.425Z,11.93
2022-08-26T22:36:47.657Z,13.60
2022-08-26T22:39:22.386Z,13.37
2022-08-26T22:41:55.207Z,12.73
2022-08-26T22:44:27.122Z,11.70
2022-08-26T22:46:58.979Z,12.00
2022-08-26T22:49:30.714Z,12.33
2022-08-26T22:52:02.674Z,12.97
2022-08-26T22:54:34.439Z,14.67
2022-08-26T22:57:06.926Z,13.40
2022-08-26T22:59:38.676Z,12.63
2022-08-26T23:02:14.339Z,16.70
2022-08-26T23:04:46.196Z,15.13
2022-08-26T23:07:18.576Z,15.43
2022-08-26T23:09:50.303Z,15.73
2022-08-26T23:12:22.107Z,13.37
2022-08-26T23:14:54.022Z,13.17
2022-08-26T23:17:25.803Z,17.43
2022-08-26T23:19:58.180Z,18.90
2022-08-26T23:22:31.314Z,15.67
2022-08-26T23:25:10.042Z,15.23
2022-08-26T23:27:42.874Z,19.37
2022-08-26T23:30:19.578Z,16.83
2022-08-26T23:32:52.477Z,16.53
2022-08-26T23:35:24.986Z,16.03
2022-08-26T23:37:58.990Z,22.40
2022-08-26T23:40:33.608Z,18.30
2022-08-26T23:43:08.413Z,18.33
2022-08-26T23:45:40.335Z,17.50
2022-08-26T23:48:12.188Z,18.27
2022-08-26T23:51:02.467Z,15.90
2022-08-26T23:53:34.175Z,17.40
2022-08-26T23:56:11.816Z,15.27
2022-08-26T23:58:44.027Z,21.83
